sensor_id;sensor_type;location;lat;lon;timestamp;temperature;humidity
11474;DHT22;5793;52.238;13.438;2022-12-18T00:01:43;-5.70;99.90
11474;DHT22;5793;52.238;13.438;2022-12-18T00:04:18;-5.60;99.90
11474;DHT22;5793;52.238;13.438;2022-12-18T00:06:47;-5.70;99.90
11474;DHT22;5793;52.238;13.438;2022-12-18T00:09:15;-5.70;99.90
11474;DHT22;5793;52.238;13.438;2022-12-18T00:11:42;-5.80;99.90
11474;DHT22;5793;52.238;13.438;2022-12-18T00:14:11;-5.80;99.90
11474;DHT22;5793;52.238;13.438;2022-12-18T00:16:39;-5.80;99.90
11474;DHT22;5793;52.238;13.438;2022-12-18T00:19:12;-5.70;99.90
11474;DHT22;5793;52.238;13.438;2022-12-18T00:21:41;-5.70;99.90
11474;DHT22;5793;52.238;13.438;2022-12-18T00:24:09;-5.70;99.90
11474;DHT22;5793;52.238;13.438;2022-12-18T00:26:38;-5.80;99.90
11474;DHT22;5793;52.238;13.438;2022-12-18T00:29:09;-5.70;99.90
11474;DHT22;5793;52.238;13.438;2022-12-18T00:31:37;-5.80;99.90
11474;DHT22;5793;52.238;13.438;2022-12-18T00:34:05;-5.80;99.90
11474;DHT22;5793;52.238;13.438;2022-12-18T00:36:34;-5.70;99.90
11474;DHT22;5793;52.238;13.438;2022-12-18T00:39:04;-5.80;99.90
11474;DHT22;5793;52.238;13.438;2022-12-18T00:41:32;-5.80;99.90
11474;DHT22;5793;52.238;13.438;2022-12-18T00:44:18;-5.80;99.90
11474;DHT22;5793;52.238;13.438;2022-12-18T00:46:47;-5.70;99.90
11474;DHT22;5793;52.238;13.438;2022-12-18T00:49:16;-5.80;99.90
11474;DHT22;5793;52.238;13.438;2022-12-18T00:51:47;-5.70;99.90
11474;DHT22;5793;52.238;13.438;2022-12-18T00:54:15;-5.70;99.90
11474;DHT22;5793;52.238;13.438;2022-12-18T00:56:44;-5.80;99.90
11474;DHT22;5793;52.238;13.438;2022-12-18T00:59:16;-5.80;99.90
11474;DHT22;5793;52.238;13.438;2022-12-18T01:01:44;-5.90;99.90
11474;DHT22;5793;52.238;13.438;2022-12-18T01:04:12;-5.90;99.90
11474;DHT22;5793;52.238;13.438;2022-12-18T01:06:40;-5.90;99.90
11474;DHT22;5793;52.238;13.438;2022-12-18T01:09:09;-5.90;99.90
11474;DHT22;5793;52.238;13.438;2022-12-18T01:11:37;-5.80;99.90
11474;DHT22;5793;52.238;13.438;2022-12-18T01:14:05;-5.90;99.90
11474;DHT22;5793;52.238;13.438;2022-12-18T01:16:33;-6.00;99.90
11474;DHT22;5793;52.238;13.438;2022-12-18T01:19:01;-5.90;99.90
11474;DHT22;5793;52.238;13.438;2022-12-18T01:21:28;-5.90;99.90
11474;DHT22;5793;52.238;13.438;2022-12-18T01:23:57;-6.00;99.90
11474;DHT22;5793;52.238;13.438;2022-12-18T01:26:26;-5.90;99.90
11474;DHT22;5793;52.238;13.438;2022-12-18T01:28:56;-6.00;99.90
11474;DHT22;5793;52.238;13.438;2022-12-18T01:31:25;-6.00;99.90
11474;DHT22;5793;52.238;13.438;2022-12-18T01:33:54;-5.90;99.90
11474;DHT22;5793;52.238;13.438;2022-12-18T01:36:24;-5.90;99.90
11474;DHT22;5793;52.238;13.438;2022-12-18T01:38:52;-5.90;99.90
11474;DHT22;5793;52.238;13.438;2022-12-18T01:41:23;-5.90;99.90
11474;DHT22;5793;52.238;13.438;2022-12-18T01:43:54;-5.90;99.90
11474;DHT22;5793;52.238;13.438;2022-12-18T01:46:27;-5.90;99.90
11474;DHT22;5793;52.238;13.438;2022-12-18T01:48:57;-5.90;99.90
11474;DHT22;5793;52.238;13.438;2022-12-18T01:51:27;-6.00;99.90
11474;DHT22;5793;52.238;13.438;2022-12-18T01:53:55;-5.90;99.90
11474;DHT22;5793;52.238;13.438;2022-12-18T01:56:23;-5.80;99.90
11474;DHT22;5793;52.238;13.438;2022-12-18T01:58:56;-5.80;99.90
11474;DHT22;5793;52.238;13.438;2022-12-18T02:01:26;-5.80;99.90
11474;DHT22;5793;52.238;13.438;2022-12-18T02:03:54;-5.70;99.90
11474;DHT22;5793;52.238;13.438;2022-12-18T02:06:28;-5.90;99.90
11474;DHT22;5793;52.238;13.438;2022-12-18T02:09:02;-5.90;99.90
11474;DHT22;5793;52.238;13.438;2022-12-18T02:11:42;-5.90;99.90
11474;DHT22;5793;52.238;13.438;2022-12-18T02:14:26;-5.90;99.90
11474;DHT22;5793;52.238;13.438;2022-12-18T02:17:01;-5.90;99.90
11474;DHT22;5793;52.238;13.438;2022-12-18T02:19:43;-5.90;99.90
11474;DHT22;5793;52.238;13.438;2022-12-18T02:22:24;-6.00;99.90
11474;DHT22;5793;52.238;13.438;2022-12-18T02:25:11;-6.00;99.90
11474;DHT22;5793;52.238;13.438;2022-12-18T02:27:43;-5.90;99.90
11474;DHT22;5793;52.238;13.438;2022-12-18T02:30:12;-5.90;99.90
11474;DHT22;5793;52.238;13.438;2022-12-18T02:32:43;-5.90;99.90
11474;DHT22;5793;52.238;13.438;2022-12-18T02:35:15;-6.00;99.90
11474;DHT22;5793;52.238;13.438;2022-12-18T02:37:45;-6.00;99.90
11474;DHT22;5793;52.238;13.438;2022-12-18T02:40:15;-5.90;99.90
11474;DHT22;5793;52.238;13.438;2022-12-18T02:42:46;-5.90;99.90
11474;DHT22;5793;52.238;13.438;2022-12-18T02:45:14;-5.90;99.90
11474;DHT22;5793;52.238;13.438;2022-12-18T02:47:45;-5.90;99.90
11474;DHT22;5793;52.238;13.438;2022-12-18T02:50:18;-5.90;99.90
11474;DHT22;5793;52.238;13.438;2022-12-18T02:52:59;-5.90;99.90
11474;DHT22;5793;52.238;13.438;2022-12-18T02:55:35;-6.00;99.90
11474;DHT22;5793;52.238;13.438;2022-12-18T02:58:13;-6.00;99.90
11474;DHT22;5793;52.238;13.438;2022-12-18T03:00:50;-6.10;99.90
11474;DHT22;5793;52.238;13.438;2022-12-18T03:03:22;-6.00;99.90
11474;DHT22;5793;52.238;13.438;2022-12-18T03:05:55;-6.00;99.90
11474;DHT22;5793;52.238;13.438;2022-12-18T03:08:26;-6.00;99.90
11474;DHT22;5793;52.238;13.438;2022-12-18T03:10:59;-5.90;99.90
11474;DHT22;5793;52.238;13.438;2022-12-18T03:13:32;-5.90;99.90
11474;DHT22;5793;52.238;13.438;2022-12-18T03:16:03;-6.00;99.90
11474;DHT22;5793;52.238;13.438;2022-12-18T03:18:35;-6.00;99.90
11474;DHT22;5793;52.238;13.438;2022-12-18T03:21:06;-6.00;99.90
11474;DHT22;5793;52.238;13.438;2022-12-18T03:23:36;-6.00;99.90
11474;DHT22;5793;52.238;13.438;2022-12-18T03:26:07;-6.10;99.90
11474;DHT22;5793;52.238;13.438;2022-12-18T03:28:39;-6.00;99.90
11474;DHT22;5793;52.238;13.438;2022-12-18T03:31:10;-6.00;99.90
11474;DHT22;5793;52.238;13.438;2022-12-18T03:33:43;-6.00;99.90
11474;DHT22;5793;52.238;13.438;2022-12-18T03:36:13;-6.00;99.90
11474;DHT22;5793;52.238;13.438;2022-12-18T03:38:41;-6.00;99.90
11474;DHT22;5793;52.238;13.438;2022-12-18T03:41:15;-6.00;99.90
11474;DHT22;5793;52.238;13.438;2022-12-18T03:43:49;-5.90;99.90
11474;DHT22;5793;52.238;13.438;2022-12-18T03:46:25;-6.00;99.90
11474;DHT22;5793;52.238;13.438;2022-12-18T03:49:01;-5.90;99.90
11474;DHT22;5793;52.238;13.438;2022-12-18T03:51:37;-5.90;99.90
11474;DHT22;5793;52.238;13.438;2022-12-18T03:54:06;-5.80;99.90
11474;DHT22;5793;52.238;13.438;2022-12-18T03:56:39;-5.80;99.90
11474;DHT22;5793;52.238;13.438;2022-12-18T03:59:11;-5.90;99.90
11474;DHT22;5793;52.238;13.438;2022-12-18T04:01:42;-5.90;99.90
11474;DHT22;5793;52.238;13.438;2022-12-18T04:04:14;-6.00;99.90
11474;DHT22;5793;52.238;13.438;2022-12-18T04:06:43;-5.90;99.90
11474;DHT22;5793;52.238;13.438;2022-12-18T04:09:13;-5.80;99.90
11474;DHT22;5793;52.238;13.438;2022-12-18T04:11:41;-5.80;99.90
11474;DHT22;5793;52.238;13.438;2022-12-18T04:14:11;-5.80;99.90
11474;DHT22;5793;52.238;13.438;2022-12-18T04:16:43;-5.90;99.90
11474;DHT22;5793;52.238;13.438;2022-12-18T04:19:11;-5.70;99.90
11474;DHT22;5793;52.238;13.438;2022-12-18T04:21:39;-5.80;99.90
11474;DHT22;5793;52.238;13.438;2022-12-18T04:24:07;-5.70;99.90
11474;DHT22;5793;52.238;13.438;2022-12-18T04:26:35;-5.80;99.90
11474;DHT22;5793;52.238;13.438;2022-12-18T04:29:03;-5.70;99.90
11474;DHT22;5793;52.238;13.438;2022-12-18T04:31:32;-5.80;99.90
11474;DHT22;5793;52.238;13.438;2022-12-18T04:34:00;-5.80;99.90
11474;DHT22;5793;52.238;13.438;2022-12-18T04:36:28;-5.90;99.90
11474;DHT22;5793;52.238;13.438;2022-12-18T04:38:55;-5.90;99.90
11474;DHT22;5793;52.238;13.438;2022-12-18T04:41:23;-5.90;99.90
11474;DHT22;5793;52.238;13.438;2022-12-18T04:43:51;-5.90;99.90
11474;DHT22;5793;52.238;13.438;2022-12-18T04:46:19;-5.90;99.90
11474;DHT22;5793;52.238;13.438;2022-12-18T04:48:48;-5.90;99.90
11474;DHT22;5793;52.238;13.438;2022-12-18T04:51:15;-6.00;99.90
11474;DHT22;5793;52.238;13.438;2022-12-18T04:53:51;-5.90;99.90
11474;DHT22;5793;52.238;13.438;2022-12-18T04:56:19;-5.80;99.90
11474;DHT22;5793;52.238;13.438;2022-12-18T04:58:47;-5.80;99.90
11474;DHT22;5793;52.238;13.438;2022-12-18T05:01:16;-5.80;99.90
11474;DHT22;5793;52.238;13.438;2022-12-18T05:03:44;-5.80;99.90
11474;DHT22;5793;52.238;13.438;2022-12-18T05:06:14;-5.80;99.90
11474;DHT22;5793;52.238;13.438;2022-12-18T05:08:42;-5.80;99.90
11474;DHT22;5793;52.238;13.438;2022-12-18T05:11:11;-5.80;99.90
11474;DHT22;5793;52.238;13.438;2022-12-18T05:13:40;-5.80;99.90
11474;DHT22;5793;52.238;13.438;2022-12-18T05:16:08;-5.80;99.90
11474;DHT22;5793;52.238;13.438;2022-12-18T05:18:36;-5.80;99.90
11474;DHT22;5793;52.238;13.438;2022-12-18T05:21:05;-5.70;99.90
11474;DHT22;5793;52.238;13.438;2022-12-18T05:23:34;-5.70;99.90
11474;DHT22;5793;52.238;13.438;2022-12-18T05:26:05;-5.70;99.90
11474;DHT22;5793;52.238;13.438;2022-12-18T05:28:34;-5.70;99.90
11474;DHT22;5793;52.238;13.438;2022-12-18T05:31:03;-5.60;99.90
11474;DHT22;5793;52.238;13.438;2022-12-18T05:33:33;-5.60;99.90
11474;DHT22;5793;52.238;13.438;2022-12-18T05:36:03;-5.60;99.90
11474;DHT22;5793;52.238;13.438;2022-12-18T05:38:34;-5.60;99.90
11474;DHT22;5793;52.238;13.438;2022-12-18T05:41:03;-5.60;99.90
11474;DHT22;5793;52.238;13.438;2022-12-18T05:43:33;-5.50;99.90
11474;DHT22;5793;52.238;13.438;2022-12-18T05:46:03;-5.50;99.90
11474;DHT22;5793;52.238;13.438;2022-12-18T05:48:31;-5.40;99.90
11474;DHT22;5793;52.238;13.438;2022-12-18T05:51:04;-5.50;99.90
11474;DHT22;5793;52.238;13.438;2022-12-18T05:53:35;-5.50;99.90
11474;DHT22;5793;52.238;13.438;2022-12-18T05:56:06;-5.50;99.90
11474;DHT22;5793;52.238;13.438;2022-12-18T05:58:35;-5.50;99.90
11474;DHT22;5793;52.238;13.438;2022-12-18T06:01:07;-5.60;99.90
11474;DHT22;5793;52.238;13.438;2022-12-18T06:03:36;-5.50;99.90
11474;DHT22;5793;52.238;13.438;2022-12-18T06:06:13;-5.40;99.90
11474;DHT22;5793;52.238;13.438;2022-12-18T06:08:42;-5.40;99.90
11474;DHT22;5793;52.238;13.438;2022-12-18T06:11:13;-5.30;99.90
11474;DHT22;5793;52.238;13.438;2022-12-18T06:13:41;-5.30;99.90
11474;DHT22;5793;52.238;13.438;2022-12-18T06:16:08;-5.10;99.90
11474;DHT22;5793;52.238;13.438;2022-12-18T06:18:37;-5.10;99.90
11474;DHT22;5793;52.238;13.438;2022-12-18T06:21:05;-5.20;99.90
11474;DHT22;5793;52.238;13.438;2022-12-18T06:23:33;-5.20;99.90
11474;DHT22;5793;52.238;13.438;2022-12-18T06:26:05;-5.10;99.90
11474;DHT22;5793;52.238;13.438;2022-12-18T06:28:33;-5.10;99.90
11474;DHT22;5793;52.238;13.438;2022-12-18T06:31:02;-5.20;99.90
11474;DHT22;5793;52.238;13.438;2022-12-18T06:33:30;-5.20;99.90
11474;DHT22;5793;52.238;13.438;2022-12-18T06:36:00;-5.20;99.90
11474;DHT22;5793;52.238;13.438;2022-12-18T06:38:28;-5.20;99.90
11474;DHT22;5793;52.238;13.438;2022-12-18T06:40:56;-5.30;99.90
11474;DHT22;5793;52.238;13.438;2022-12-18T06:43:25;-5.30;99.90
11474;DHT22;5793;52.238;13.438;2022-12-18T06:45:58;-5.40;99.90
11474;DHT22;5793;52.238;13.438;2022-12-18T06:48:26;-5.40;99.90
11474;DHT22;5793;52.238;13.438;2022-12-18T06:50:54;-5.50;99.90
11474;DHT22;5793;52.238;13.438;2022-12-18T06:53:22;-5.60;99.90
11474;DHT22;5793;52.238;13.438;2022-12-18T06:55:50;-5.50;99.90
11474;DHT22;5793;52.238;13.438;2022-12-18T06:58:19;-5.40;99.90
11474;DHT22;5793;52.238;13.438;2022-12-18T07:00:48;-5.50;99.90
11474;DHT22;5793;52.238;13.438;2022-12-18T07:03:16;-5.50;99.90
11474;DHT22;5793;52.238;13.438;2022-12-18T07:05:43;-5.40;99.90
11474;DHT22;5793;52.238;13.438;2022-12-18T07:08:11;-5.40;99.90
11474;DHT22;5793;52.238;13.438;2022-12-18T07:10:43;-5.40;99.90
11474;DHT22;5793;52.238;13.438;2022-12-18T07:13:14;-5.50;99.90
11474;DHT22;5793;52.238;13.438;2022-12-18T07:15:42;-5.40;99.90
11474;DHT22;5793;52.238;13.438;2022-12-18T07:18:12;-5.60;99.90
11474;DHT22;5793;52.238;13.438;2022-12-18T07:20:40;-5.60;99.90
11474;DHT22;5793;52.238;13.438;2022-12-18T07:23:08;-5.50;99.90
11474;DHT22;5793;52.238;13.438;2022-12-18T07:25:36;-5.60;99.90
11474;DHT22;5793;52.238;13.438;2022-12-18T07:28:04;-5.50;99.90
11474;DHT22;5793;52.238;13.438;2022-12-18T07:30:32;-5.40;99.90
11474;DHT22;5793;52.238;13.438;2022-12-18T07:33:00;-5.30;99.90
11474;DHT22;5793;52.238;13.438;2022-12-18T07:35:29;-5.30;99.90
11474;DHT22;5793;52.238;13.438;2022-12-18T07:37:57;-5.20;99.90
11474;DHT22;5793;52.238;13.438;2022-12-18T07:40:27;-5.10;99.90
11474;DHT22;5793;52.238;13.438;2022-12-18T07:42:55;-5.00;99.90
11474;DHT22;5793;52.238;13.438;2022-12-18T07:45:23;-5.10;99.90
11474;DHT22;5793;52.238;13.438;2022-12-18T07:47:51;-5.10;99.90
11474;DHT22;5793;52.238;13.438;2022-12-18T07:50:18;-5.10;99.90
11474;DHT22;5793;52.238;13.438;2022-12-18T07:52:47;-5.10;99.90
11474;DHT22;5793;52.238;13.438;2022-12-18T07:55:15;-5.30;99.90
11474;DHT22;5793;52.238;13.438;2022-12-18T07:57:43;-5.20;99.90
11474;DHT22;5793;52.238;13.438;2022-12-18T08:00:17;-5.30;99.90
11474;DHT22;5793;52.238;13.438;2022-12-18T08:02:47;-5.30;99.90
11474;DHT22;5793;52.238;13.438;2022-12-18T08:05:15;-5.30;99.90
11474;DHT22;5793;52.238;13.438;2022-12-18T08:07:42;-5.20;99.90
11474;DHT22;5793;52.238;13.438;2022-12-18T08:10:11;-5.20;99.90
11474;DHT22;5793;52.238;13.438;2022-12-18T08:12:39;-5.20;99.90
11474;DHT22;5793;52.238;13.438;2022-12-18T08:15:08;-5.10;99.90
11474;DHT22;5793;52.238;13.438;2022-12-18T08:17:36;-5.10;99.90
11474;DHT22;5793;52.238;13.438;2022-12-18T08:20:04;-5.10;99.90
11474;DHT22;5793;52.238;13.438;2022-12-18T08:22:33;-5.00;99.90
11474;DHT22;5793;52.238;13.438;2022-12-18T08:25:01;-5.00;99.90
11474;DHT22;5793;52.238;13.438;2022-12-18T08:27:32;-4.90;99.90
11474;DHT22;5793;52.238;13.438;2022-12-18T08:30:00;-4.90;99.90
11474;DHT22;5793;52.238;13.438;2022-12-18T08:32:28;-5.00;99.90
11474;DHT22;5793;52.238;13.438;2022-12-18T08:34:55;-4.90;99.90
11474;DHT22;5793;52.238;13.438;2022-12-18T08:37:23;-4.90;99.90
11474;DHT22;5793;52.238;13.438;2022-12-18T08:39:52;-4.90;99.90
11474;DHT22;5793;52.238;13.438;2022-12-18T08:42:19;-4.80;99.90
11474;DHT22;5793;52.238;13.438;2022-12-18T08:45:08;-4.80;99.90
11474;DHT22;5793;52.238;13.438;2022-12-18T08:47:35;-4.80;99.90
11474;DHT22;5793;52.238;13.438;2022-12-18T08:50:04;-4.80;99.90
11474;DHT22;5793;52.238;13.438;2022-12-18T08:52:32;-4.70;99.90
11474;DHT22;5793;52.238;13.438;2022-12-18T08:55:00;-4.70;99.90
11474;DHT22;5793;52.238;13.438;2022-12-18T08:57:28;-4.60;99.90
11474;DHT22;5793;52.238;13.438;2022-12-18T08:59:56;-4.60;99.90
11474;DHT22;5793;52.238;13.438;2022-12-18T09:02:25;-4.60;99.90
11474;DHT22;5793;52.238;13.438;2022-12-18T09:04:53;-4.60;99.90
11474;DHT22;5793;52.238;13.438;2022-12-18T09:07:23;-4.60;99.90
11474;DHT22;5793;52.238;13.438;2022-12-18T09:09:51;-4.50;99.90
11474;DHT22;5793;52.238;13.438;2022-12-18T09:12:18;-4.50;99.90
11474;DHT22;5793;52.238;13.438;2022-12-18T09:14:47;-4.50;99.90
11474;DHT22;5793;52.238;13.438;2022-12-18T09:17:14;-4.40;99.90
11474;DHT22;5793;52.238;13.438;2022-12-18T09:19:43;-4.40;99.90
11474;DHT22;5793;52.238;13.438;2022-12-18T09:22:11;-4.30;99.90
11474;DHT22;5793;52.238;13.438;2022-12-18T09:24:39;-4.30;99.90
11474;DHT22;5793;52.238;13.438;2022-12-18T09:27:07;-4.20;99.90
11474;DHT22;5793;52.238;13.438;2022-12-18T09:29:34;-4.20;99.90
11474;DHT22;5793;52.238;13.438;2022-12-18T09:32:03;-4.10;99.90
11474;DHT22;5793;52.238;13.438;2022-12-18T09:34:31;-4.20;99.90
11474;DHT22;5793;52.238;13.438;2022-12-18T09:37:00;-4.20;99.90
11474;DHT22;5793;52.238;13.438;2022-12-18T09:39:28;-4.20;99.90
11474;DHT22;5793;52.238;13.438;2022-12-18T09:41:57;-4.20;99.90
11474;DHT22;5793;52.238;13.438;2022-12-18T09:44:28;-4.20;99.90
11474;DHT22;5793;52.238;13.438;2022-12-18T09:47:04;-4.10;99.90
11474;DHT22;5793;52.238;13.438;2022-12-18T09:49:36;-4.00;99.90
11474;DHT22;5793;52.238;13.438;2022-12-18T09:52:11;-4.00;99.90
11474;DHT22;5793;52.238;13.438;2022-12-18T09:54:42;-3.90;99.90
11474;DHT22;5793;52.238;13.438;2022-12-18T09:57:14;-3.80;99.90
11474;DHT22;5793;52.238;13.438;2022-12-18T09:59:46;-3.80;99.90
11474;DHT22;5793;52.238;13.438;2022-12-18T10:02:17;-3.80;99.90
11474;DHT22;5793;52.238;13.438;2022-12-18T10:04:48;-3.70;99.90
11474;DHT22;5793;52.238;13.438;2022-12-18T10:07:24;-3.60;99.90
11474;DHT22;5793;52.238;13.438;2022-12-18T10:10:01;-3.80;99.90
11474;DHT22;5793;52.238;13.438;2022-12-18T10:12:36;-3.70;99.90
11474;DHT22;5793;52.238;13.438;2022-12-18T10:15:16;-3.60;99.90
11474;DHT22;5793;52.238;13.438;2022-12-18T10:17:51;-3.50;99.90
11474;DHT22;5793;52.238;13.438;2022-12-18T10:20:27;-3.40;99.90
11474;DHT22;5793;52.238;13.438;2022-12-18T10:23:02;-3.30;99.90
11474;DHT22;5793;52.238;13.438;2022-12-18T10:25:35;-3.20;99.90
11474;DHT22;5793;52.238;13.438;2022-12-18T10:28:10;-3.30;99.90
11474;DHT22;5793;52.238;13.438;2022-12-18T10:30:40;-3.30;99.90
11474;DHT22;5793;52.238;13.438;2022-12-18T10:33:11;-3.30;99.90
11474;DHT22;5793;52.238;13.438;2022-12-18T10:35:41;-3.30;99.90
11474;DHT22;5793;52.238;13.438;2022-12-18T10:38:23;-3.30;99.90
11474;DHT22;5793;52.238;13.438;2022-12-18T10:40:52;-3.40;99.90
11474;DHT22;5793;52.238;13.438;2022-12-18T10:43:23;-3.40;99.90
11474;DHT22;5793;52.238;13.438;2022-12-18T10:46:04;-3.30;99.90
11474;DHT22;5793;52.238;13.438;2022-12-18T10:48:35;-3.20;99.90
11474;DHT22;5793;52.238;13.438;2022-12-18T10:51:07;-3.20;99.90
11474;DHT22;5793;52.238;13.438;2022-12-18T10:53:41;-3.20;99.90
11474;DHT22;5793;52.238;13.438;2022-12-18T10:56:10;-3.10;99.90
11474;DHT22;5793;52.238;13.438;2022-12-18T10:58:38;-3.10;99.90
11474;DHT22;5793;52.238;13.438;2022-12-18T11:01:09;-3.10;99.90
11474;DHT22;5793;52.238;13.438;2022-12-18T11:03:39;-3.10;99.90
11474;DHT22;5793;52.238;13.438;2022-12-18T11:06:11;-3.10;99.90
11474;DHT22;5793;52.238;13.438;2022-12-18T11:08:41;-3.00;99.90
11474;DHT22;5793;52.238;13.438;2022-12-18T11:11:18;-3.00;99.90
11474;DHT22;5793;52.238;13.438;2022-12-18T11:13:57;-3.00;99.90
11474;DHT22;5793;52.238;13.438;2022-12-18T11:16:27;-3.00;99.90
11474;DHT22;5793;52.238;13.438;2022-12-18T11:19:09;-3.10;99.90
11474;DHT22;5793;52.238;13.438;2022-12-18T11:21:39;-3.20;99.90
11474;DHT22;5793;52.238;13.438;2022-12-18T11:24:20;-3.10;99.90
11474;DHT22;5793;52.238;13.438;2022-12-18T11:26:48;-3.20;99.90
11474;DHT22;5793;52.238;13.438;2022-12-18T11:29:31;-3.30;99.90
11474;DHT22;5793;52.238;13.438;2022-12-18T11:32:26;-3.20;99.90
11474;DHT22;5793;52.238;13.438;2022-12-18T11:34:59;-3.00;99.90
11474;DHT22;5793;52.238;13.438;2022-12-18T11:37:28;-3.00;99.90
11474;DHT22;5793;52.238;13.438;2022-12-18T11:40:01;-3.00;99.90
11474;DHT22;5793;52.238;13.438;2022-12-18T11:42:35;-3.00;99.90
11474;DHT22;5793;52.238;13.438;2022-12-18T11:45:20;-3.00;99.90
11474;DHT22;5793;52.238;13.438;2022-12-18T11:47:52;-2.90;99.90
11474;DHT22;5793;52.238;13.438;2022-12-18T11:50:24;-3.00;99.90
11474;DHT22;5793;52.238;13.438;2022-12-18T11:52:53;-2.90;99.90
11474;DHT22;5793;52.238;13.438;2022-12-18T11:55:37;-2.90;99.90
11474;DHT22;5793;52.238;13.438;2022-12-18T11:58:12;-3.00;99.90
11474;DHT22;5793;52.238;13.438;2022-12-18T12:00:49;-2.90;99.90
11474;DHT22;5793;52.238;13.438;2022-12-18T12:03:27;-3.00;99.90
11474;DHT22;5793;52.238;13.438;2022-12-18T12:06:10;-3.10;99.90
11474;DHT22;5793;52.238;13.438;2022-12-18T12:08:50;-3.10;99.90
11474;DHT22;5793;52.238;13.438;2022-12-18T12:11:30;-3.10;99.90
11474;DHT22;5793;52.238;13.438;2022-12-18T12:14:32;-3.10;99.90
11474;DHT22;5793;52.238;13.438;2022-12-18T12:17:08;-3.10;99.90
11474;DHT22;5793;52.238;13.438;2022-12-18T12:19:46;-3.10;99.90
11474;DHT22;5793;52.238;13.438;2022-12-18T12:22:22;-3.00;99.90
11474;DHT22;5793;52.238;13.438;2022-12-18T12:25:02;-3.00;99.90
11474;DHT22;5793;52.238;13.438;2022-12-18T12:27:41;-3.00;99.90
11474;DHT22;5793;52.238;13.438;2022-12-18T12:30:20;-3.00;99.90
11474;DHT22;5793;52.238;13.438;2022-12-18T12:33:01;-3.00;99.90
11474;DHT22;5793;52.238;13.438;2022-12-18T12:35:39;-3.00;99.90
11474;DHT22;5793;52.238;13.438;2022-12-18T12:38:12;-3.00;99.90
11474;DHT22;5793;52.238;13.438;2022-12-18T12:40:45;-3.10;99.90
11474;DHT22;5793;52.238;13.438;2022-12-18T12:43:31;-3.10;99.90
11474;DHT22;5793;52.238;13.438;2022-12-18T12:46:03;-3.20;99.90
11474;DHT22;5793;52.238;13.438;2022-12-18T12:48:43;-3.30;99.90
11474;DHT22;5793;52.238;13.438;2022-12-18T12:51:16;-3.30;99.90
11474;DHT22;5793;52.238;13.438;2022-12-18T12:53:46;-3.20;99.90
11474;DHT22;5793;52.238;13.438;2022-12-18T12:56:15;-3.20;99.90
11474;DHT22;5793;52.238;13.438;2022-12-18T12:58:55;-3.10;99.90
11474;DHT22;5793;52.238;13.438;2022-12-18T13:01:30;-3.20;99.90
11474;DHT22;5793;52.238;13.438;2022-12-18T13:04:08;-3.20;99.90
11474;DHT22;5793;52.238;13.438;2022-12-18T13:06:46;-3.30;99.90
11474;DHT22;5793;52.238;13.438;2022-12-18T13:09:17;-3.30;99.90
11474;DHT22;5793;52.238;13.438;2022-12-18T13:11:46;-3.30;99.90
11474;DHT22;5793;52.238;13.438;2022-12-18T13:14:35;-3.40;99.90
11474;DHT22;5793;52.238;13.438;2022-12-18T13:17:27;-3.40;99.90
11474;DHT22;5793;52.238;13.438;2022-12-18T13:20:13;-3.50;99.90
11474;DHT22;5793;52.238;13.438;2022-12-18T13:22:44;-3.50;99.90
11474;DHT22;5793;52.238;13.438;2022-12-18T13:25:33;-3.60;99.90
11474;DHT22;5793;52.238;13.438;2022-12-18T13:28:09;-3.50;99.90
11474;DHT22;5793;52.238;13.438;2022-12-18T13:30:44;-3.40;99.90
11474;DHT22;5793;52.238;13.438;2022-12-18T13:33:38;-3.40;99.90
11474;DHT22;5793;52.238;13.438;2022-12-18T13:36:31;-3.30;99.90
11474;DHT22;5793;52.238;13.438;2022-12-18T13:39:24;-3.40;99.90
11474;DHT22;5793;52.238;13.438;2022-12-18T13:45:37;-3.40;99.90
11474;DHT22;5793;52.238;13.438;2022-12-18T13:48:15;-3.40;99.90
11474;DHT22;5793;52.238;13.438;2022-12-18T13:50:49;-3.30;99.90
11474;DHT22;5793;52.238;13.438;2022-12-18T13:53:22;-3.30;99.90
11474;DHT22;5793;52.238;13.438;2022-12-18T13:55:51;-3.40;99.90
11474;DHT22;5793;52.238;13.438;2022-12-18T13:58:19;-3.50;99.90
11474;DHT22;5793;52.238;13.438;2022-12-18T14:00:48;-3.50;99.90
11474;DHT22;5793;52.238;13.438;2022-12-18T14:03:21;-3.60;99.90
11474;DHT22;5793;52.238;13.438;2022-12-18T14:05:56;-3.60;99.90
11474;DHT22;5793;52.238;13.438;2022-12-18T14:08:30;-3.70;99.90
11474;DHT22;5793;52.238;13.438;2022-12-18T14:11:00;-3.80;99.90
11474;DHT22;5793;52.238;13.438;2022-12-18T14:13:30;-3.80;99.90
11474;DHT22;5793;52.238;13.438;2022-12-18T14:16:01;-3.80;99.90
11474;DHT22;5793;52.238;13.438;2022-12-18T14:18:37;-3.80;99.90
11474;DHT22;5793;52.238;13.438;2022-12-18T14:21:13;-3.90;99.90
11474;DHT22;5793;52.238;13.438;2022-12-18T14:23:43;-3.90;99.90
11474;DHT22;5793;52.238;13.438;2022-12-18T14:26:22;-4.00;99.90
11474;DHT22;5793;52.238;13.438;2022-12-18T14:28:51;-4.00;99.90
11474;DHT22;5793;52.238;13.438;2022-12-18T14:31:20;-4.00;99.90
11474;DHT22;5793;52.238;13.438;2022-12-18T14:33:50;-4.10;99.90
11474;DHT22;5793;52.238;13.438;2022-12-18T14:36:19;-4.00;99.90
11474;DHT22;5793;52.238;13.438;2022-12-18T14:38:49;-4.00;99.90
11474;DHT22;5793;52.238;13.438;2022-12-18T14:41:18;-4.00;99.90
11474;DHT22;5793;52.238;13.438;2022-12-18T14:43:48;-4.00;99.90
11474;DHT22;5793;52.238;13.438;2022-12-18T14:46:32;-4.00;99.90
11474;DHT22;5793;52.238;13.438;2022-12-18T14:49:04;-3.90;99.90
11474;DHT22;5793;52.238;13.438;2022-12-18T14:51:33;-3.90;99.90
11474;DHT22;5793;52.238;13.438;2022-12-18T14:54:03;-3.90;99.90
11474;DHT22;5793;52.238;13.438;2022-12-18T14:56:35;-3.80;99.90
11474;DHT22;5793;52.238;13.438;2022-12-18T14:59:05;-3.80;99.90
11474;DHT22;5793;52.238;13.438;2022-12-18T15:01:36;-3.70;99.90
11474;DHT22;5793;52.238;13.438;2022-12-18T15:04:24;-3.80;99.90
11474;DHT22;5793;52.238;13.438;2022-12-18T15:07:08;-3.80;99.90
11474;DHT22;5793;52.238;13.438;2022-12-18T15:09:38;-3.80;99.90
11474;DHT22;5793;52.238;13.438;2022-12-18T15:12:28;-3.80;99.90
11474;DHT22;5793;52.238;13.438;2022-12-18T15:15:01;-3.70;99.90
11474;DHT22;5793;52.238;13.438;2022-12-18T15:17:28;-3.80;99.90
11474;DHT22;5793;52.238;13.438;2022-12-18T15:20:02;-4.00;99.90
11474;DHT22;5793;52.238;13.438;2022-12-18T15:22:34;-4.00;99.90
11474;DHT22;5793;52.238;13.438;2022-12-18T15:25:17;-4.00;99.90
11474;DHT22;5793;52.238;13.438;2022-12-18T15:27:49;-4.10;99.90
11474;DHT22;5793;52.238;13.438;2022-12-18T15:30:22;-4.20;99.90
11474;DHT22;5793;52.238;13.438;2022-12-18T15:32:51;-4.20;99.90
11474;DHT22;5793;52.238;13.438;2022-12-18T15:35:22;-4.30;99.90
11474;DHT22;5793;52.238;13.438;2022-12-18T15:37:51;-4.30;99.90
11474;DHT22;5793;52.238;13.438;2022-12-18T15:40:21;-4.30;99.90
11474;DHT22;5793;52.238;13.438;2022-12-18T15:42:53;-4.40;99.90
11474;DHT22;5793;52.238;13.438;2022-12-18T15:45:39;-4.40;99.90
11474;DHT22;5793;52.238;13.438;2022-12-18T15:48:17;-4.30;99.90
11474;DHT22;5793;52.238;13.438;2022-12-18T15:50:48;-4.30;99.90
11474;DHT22;5793;52.238;13.438;2022-12-18T15:53:16;-4.30;99.90
11474;DHT22;5793;52.238;13.438;2022-12-18T15:55:44;-4.30;99.90
11474;DHT22;5793;52.238;13.438;2022-12-18T15:58:29;-4.30;99.90
11474;DHT22;5793;52.238;13.438;2022-12-18T16:00:59;-4.30;99.90
11474;DHT22;5793;52.238;13.438;2022-12-18T16:03:27;-4.40;99.90